createdAt,value
2018-12-13T00:00:48.628Z,-9.06
2018-12-13T00:01:48.485Z,-9.02
2018-12-13T00:02:49.084Z,-8.97
2018-12-13T00:03:48.202Z,-8.97
2018-12-13T00:04:48.062Z,-8.95
2018-12-13T00:05:47.920Z,-8.98
2018-12-13T00:06:47.778Z,-8.92
2018-12-13T00:07:47.638Z,-9.01
2018-12-13T00:08:47.506Z,-9.04
2018-12-13T00:09:47.359Z,-8.99
2018-12-13T00:10:47.213Z,-8.99
2018-12-13T00:11:47.075Z,-8.84
2018-12-13T00:12:46.931Z,-8.84
2018-12-13T00:13:46.792Z,-8.91
2018-12-13T00:14:46.650Z,-8.88
2018-12-13T00:15:46.509Z,-8.91
2018-12-13T00:16:46.366Z,-8.95
2018-12-13T00:17:46.227Z,-8.99
2018-12-13T00:18:46.086Z,-8.95
2018-12-13T00:19:45.944Z,-8.99
2018-12-13T00:20:45.803Z,-8.97
2018-12-13T00:21:45.661Z,-8.88
2018-12-13T00:22:45.520Z,-8.98
2018-12-13T00:23:45.382Z,-8.86
2018-12-13T00:24:45.237Z,-8.88
2018-12-13T00:25:45.097Z,-8.92
2018-12-13T00:26:44.955Z,-8.92
2018-12-13T00:27:44.815Z,-8.86
2018-12-13T00:28:44.673Z,-8.97
2018-12-13T00:29:44.532Z,-8.92
2018-12-13T00:30:44.389Z,-9.04
2018-12-13T00:31:44.247Z,-8.99
2018-12-13T00:32:44.106Z,-9.10
2018-12-13T00:33:43.966Z,-9.16
2018-12-13T00:34:43.825Z,-9.23
2018-12-13T00:35:43.685Z,-9.27
2018-12-13T00:36:43.544Z,-9.22
2018-12-13T00:37:43.404Z,-9.18
2018-12-13T00:38:43.260Z,-9.23
2018-12-13T00:39:43.119Z,-9.28
2018-12-13T00:40:42.978Z,-9.28
2018-12-13T00:41:42.839Z,-9.20
2018-12-13T00:42:42.695Z,-9.20
2018-12-13T00:43:42.555Z,-9.20
2018-12-13T00:44:42.415Z,-9.16
2018-12-13T00:45:42.275Z,-9.26
2018-12-13T00:46:42.129Z,-9.22
2018-12-13T00:47:41.988Z,-9.18
2018-12-13T00:48:41.849Z,-9.19
2018-12-13T00:49:41.707Z,-9.10
2018-12-13T00:50:41.567Z,-9.12
2018-12-13T00:51:41.428Z,-9.18
2018-12-13T00:52:41.282Z,-9.22
2018-12-13T00:53:41.141Z,-9.09
2018-12-13T00:54:40.999Z,-9.06
2018-12-13T00:55:40.858Z,-9.06
2018-12-13T00:56:40.720Z,-9.09
2018-12-13T00:57:40.575Z,-9.04
2018-12-13T00:58:40.434Z,-9.02
2018-12-13T00:59:40.291Z,-9.04
2018-12-13T01:00:40.152Z,-9.04
2018-12-13T01:01:40.020Z,-9.01
2018-12-13T01:02:39.873Z,-9.04
2018-12-13T01:03:39.728Z,-9.08
2018-12-13T01:04:39.589Z,-8.98
2018-12-13T01:05:39.446Z,-9.04
2018-12-13T01:06:39.302Z,-8.99
2018-12-13T01:07:39.162Z,-8.89
2018-12-13T01:08:39.020Z,-9.02
2018-12-13T01:09:38.878Z,-9.02
2018-12-13T01:10:38.739Z,-9.06
2018-12-13T01:11:38.596Z,-9.01
2018-12-13T01:12:38.455Z,-8.99
2018-12-13T01:13:38.315Z,-9.01
2018-12-13T01:14:38.170Z,-9.04
2018-12-13T01:15:38.032Z,-8.98
2018-12-13T01:16:37.889Z,-9.09
2018-12-13T01:17:37.748Z,-8.99
2018-12-13T01:18:37.606Z,-9.08
2018-12-13T01:19:37.467Z,-8.99
2018-12-13T01:20:37.324Z,-9.01
2018-12-13T01:21:37.182Z,-8.99
2018-12-13T01:22:37.041Z,-8.99
2018-12-13T01:23:36.931Z,-8.99
2018-12-13T01:24:36.758Z,-9.02
2018-12-13T01:25:36.617Z,-8.99
2018-12-13T01:26:36.475Z,-8.92
2018-12-13T01:27:36.334Z,-8.86
2018-12-13T01:28:36.197Z,-8.84
2018-12-13T01:29:36.052Z,-8.92
2018-12-13T01:30:35.910Z,-9.01
2018-12-13T01:31:35.773Z,-9.04
2018-12-13T01:32:35.630Z,-9.02
2018-12-13T01:33:35.487Z,-9.09
2018-12-13T01:34:35.347Z,-8.94
2018-12-13T01:35:35.207Z,-8.83
2018-12-13T01:36:35.065Z,-8.83
2018-12-13T01:37:34.927Z,-8.84
2018-12-13T01:38:34.780Z,-8.86
2018-12-13T01:39:34.642Z,-8.89
2018-12-13T01:40:34.500Z,-8.84
2018-12-13T01:41:34.361Z,-8.83
2018-12-13T01:42:34.218Z,-8.97
2018-12-13T01:43:34.076Z,-8.91
2018-12-13T01:44:33.935Z,-8.99
2018-12-13T01:45:33.795Z,-9.06
2018-12-13T01:46:33.650Z,-9.02
2018-12-13T01:47:33.511Z,-9.09
2018-12-13T01:48:33.368Z,-8.98
2018-12-13T01:49:33.227Z,-8.98
2018-12-13T01:50:33.086Z,-8.89
2018-12-13T01:51:32.945Z,-8.88
2018-12-13T01:52:32.804Z,-8.86
2018-12-13T01:53:32.663Z,-8.80
2018-12-13T01:54:32.521Z,-8.81
2018-12-13T01:55:32.381Z,-8.86
2018-12-13T01:56:32.240Z,-8.73
2018-12-13T01:57:32.100Z,-8.76
2018-12-13T01:58:31.955Z,-8.73
2018-12-13T01:59:31.816Z,-8.70
2018-12-13T02:00:31.675Z,-8.77
2018-12-13T02:01:31.535Z,-8.84
2018-12-13T02:02:31.396Z,-8.80
2018-12-13T02:03:31.250Z,-8.77
2018-12-13T02:04:31.111Z,-8.88
2018-12-13T02:05:30.972Z,-8.86
2018-12-13T02:06:30.827Z,-8.65
2018-12-13T02:07:30.685Z,-8.70
2018-12-13T02:08:30.545Z,-8.66
2018-12-13T02:09:30.403Z,-8.70
2018-12-13T02:10:30.262Z,-8.86
2018-12-13T02:11:30.120Z,-8.76
2018-12-13T02:12:29.979Z,-8.81
2018-12-13T02:13:29.838Z,-8.84
2018-12-13T02:14:29.697Z,-8.83
2018-12-13T02:15:29.556Z,-8.83
2018-12-13T02:16:29.418Z,-8.88
2018-12-13T02:17:29.286Z,-8.94
2018-12-13T02:18:29.131Z,-8.91
2018-12-13T02:19:28.993Z,-8.77
2018-12-13T02:20:28.850Z,-8.83
2018-12-13T02:21:28.709Z,-8.84
2018-12-13T02:22:28.567Z,-8.83
2018-12-13T02:23:28.428Z,-8.81
2018-12-13T02:24:28.286Z,-8.78
2018-12-13T02:25:28.144Z,-8.83
2018-12-13T02:26:28.005Z,-8.86
2018-12-13T02:27:27.860Z,-8.74
2018-12-13T02:28:27.722Z,-8.84
2018-12-13T02:29:27.588Z,-8.74
2018-12-13T02:30:27.440Z,-8.66
2018-12-13T02:31:27.314Z,-8.63
2018-12-13T02:32:27.157Z,-8.68
2018-12-13T02:33:27.017Z,-8.73
2018-12-13T02:34:26.873Z,-8.74
2018-12-13T02:35:26.732Z,-8.83
2018-12-13T02:36:26.593Z,-8.78
2018-12-13T02:37:26.450Z,-8.84
2018-12-13T02:38:26.311Z,-8.83
2018-12-13T02:39:26.168Z,-8.78
2018-12-13T02:40:26.026Z,-8.84
2018-12-13T02:41:25.893Z,-8.83
2018-12-13T02:42:25.745Z,-8.84
2018-12-13T02:43:25.603Z,-8.84
2018-12-13T02:44:25.471Z,-8.73
2018-12-13T02:45:25.327Z,-8.70
2018-12-13T02:46:25.179Z,-8.73
2018-12-13T02:47:25.042Z,-8.76
2018-12-13T02:48:24.905Z,-8.88
2018-12-13T02:49:24.758Z,-8.77
2018-12-13T02:50:24.614Z,-8.66
2018-12-13T02:51:24.487Z,-8.62
2018-12-13T02:52:24.332Z,-8.63
2018-12-13T02:53:24.191Z,-8.59
2018-12-13T02:54:24.051Z,-8.59
2018-12-13T02:55:23.909Z,-8.56
2018-12-13T02:56:23.768Z,-8.62
2018-12-13T02:57:23.626Z,-8.68
2018-12-13T02:58:23.483Z,-8.58
2018-12-13T02:59:23.344Z,-8.63
2018-12-13T03:00:23.202Z,-8.65
2018-12-13T03:01:23.065Z,-8.59
2018-12-13T03:02:22.922Z,-8.68
2018-12-13T03:03:22.778Z,-8.65
2018-12-13T03:04:22.639Z,-8.63
2018-12-13T03:05:22.499Z,-8.65
2018-12-13T03:06:22.354Z,-8.71
2018-12-13T03:07:22.214Z,-8.84
2018-12-13T03:08:22.074Z,-8.81
2018-12-13T03:09:21.933Z,-8.78
2018-12-13T03:10:21.791Z,-8.86
2018-12-13T03:11:21.651Z,-8.86
2018-12-13T03:12:21.511Z,-8.76
2018-12-13T03:13:21.367Z,-8.74
2018-12-13T03:14:21.228Z,-8.71
2018-12-13T03:15:21.091Z,-8.71
2018-12-13T03:16:20.947Z,-8.77
2018-12-13T03:17:20.807Z,-8.89
2018-12-13T03:18:20.663Z,-8.83
2018-12-13T03:19:20.523Z,-8.80
2018-12-13T03:20:20.382Z,-8.91
2018-12-13T03:21:20.242Z,-8.86
2018-12-13T03:22:20.100Z,-9.04
2018-12-13T03:23:19.958Z,-8.83
2018-12-13T03:24:19.817Z,-8.84
2018-12-13T03:25:19.680Z,-8.84
2018-12-13T03:26:19.539Z,-8.88
2018-12-13T03:27:19.393Z,-8.84
2018-12-13T03:28:19.252Z,-8.84
2018-12-13T03:29:19.111Z,-8.92
2018-12-13T03:30:18.970Z,-8.92
2018-12-13T03:31:18.832Z,-9.01
2018-12-13T03:32:18.687Z,-8.86
2018-12-13T03:33:18.545Z,-8.83
2018-12-13T03:34:18.406Z,-8.78
2018-12-13T03:35:18.265Z,-8.81
2018-12-13T03:36:18.122Z,-8.80
2018-12-13T03:37:20.718Z,-8.83
2018-12-13T03:38:17.840Z,-8.83
2018-12-13T03:39:17.699Z,-8.84
2018-12-13T03:40:17.557Z,-8.83
2018-12-13T03:41:17.418Z,-8.84
2018-12-13T03:42:17.276Z,-8.94
2018-12-13T03:43:17.139Z,-8.88
2018-12-13T03:44:16.993Z,-8.95
2018-12-13T03:45:16.853Z,-8.86
2018-12-13T03:46:16.711Z,-8.83
2018-12-13T03:47:16.571Z,-8.80
2018-12-13T03:48:16.429Z,-8.83
2018-12-13T03:49:16.288Z,-8.70
2018-12-13T03:50:16.146Z,-8.73
2018-12-13T03:51:16.004Z,-8.68
2018-12-13T03:52:15.864Z,-8.63
2018-12-13T03:53:15.722Z,-8.68
2018-12-13T03:54:15.580Z,-8.63
2018-12-13T03:55:15.440Z,-8.83
2018-12-13T03:56:15.298Z,-8.81
2018-12-13T03:57:15.158Z,-8.98
2018-12-13T03:58:15.016Z,-8.92
2018-12-13T03:59:14.888Z,-8.95
2018-12-13T04:00:14.733Z,-9.02
2018-12-13T04:01:14.591Z,-8.95
2018-12-13T04:02:14.449Z,-9.06
2018-12-13T04:03:14.313Z,-8.99
2018-12-13T04:04:14.169Z,-8.89
2018-12-13T04:05:14.032Z,-8.86
2018-12-13T04:06:13.886Z,-8.80
2018-12-13T04:07:13.744Z,-8.81
2018-12-13T04:08:13.607Z,-8.81
2018-12-13T04:09:13.462Z,-8.89
2018-12-13T04:10:13.323Z,-8.91
2018-12-13T04:11:13.180Z,-8.80
2018-12-13T04:12:13.039Z,-8.73
2018-12-13T04:13:12.898Z,-8.73
2018-12-13T04:14:12.759Z,-8.68
2018-12-13T04:15:12.616Z,-8.66
2018-12-13T04:16:12.474Z,-8.76
2018-12-13T04:17:12.332Z,-8.77
2018-12-13T04:18:12.192Z,-8.91
2018-12-13T04:19:12.051Z,-8.91
2018-12-13T04:20:11.911Z,-8.84
2018-12-13T04:21:11.767Z,-8.97
2018-12-13T04:22:11.628Z,-8.94
2018-12-13T04:23:11.485Z,-9.01
2018-12-13T04:24:11.346Z,-8.95
2018-12-13T04:25:11.211Z,-8.97
2018-12-13T04:26:11.066Z,-9.01
2018-12-13T04:27:10.920Z,-9.04
2018-12-13T04:28:10.778Z,-9.08
2018-12-13T04:29:10.637Z,-9.01
2018-12-13T04:30:10.499Z,-9.02
2018-12-13T04:31:10.355Z,-8.97
2018-12-13T04:32:10.214Z,-9.10
2018-12-13T04:33:10.074Z,-9.20
2018-12-13T04:34:09.939Z,-9.18
2018-12-13T04:35:09.790Z,-9.15
2018-12-13T04:36:09.649Z,-9.12
2018-12-13T04:37:09.508Z,-9.12
2018-12-13T04:38:09.433Z,-9.16
2018-12-13T04:39:09.228Z,-9.09
2018-12-13T04:40:09.084Z,-8.99
2018-12-13T04:41:08.941Z,-8.98
2018-12-13T04:42:08.800Z,-8.89
2018-12-13T04:43:08.671Z,-8.83
2018-12-13T04:44:08.518Z,-8.86
2018-12-13T04:45:08.382Z,-8.92
2018-12-13T04:46:08.234Z,-8.88
2018-12-13T04:47:08.103Z,-9.02
2018-12-13T04:48:07.959Z,-9.06
2018-12-13T04:49:07.812Z,-8.97
2018-12-13T04:50:07.668Z,-8.98
2018-12-13T04:51:07.528Z,-9.01
2018-12-13T04:52:07.404Z,-8.89
2018-12-13T04:53:07.249Z,-8.86
2018-12-13T04:54:07.104Z,-8.95
2018-12-13T04:55:06.961Z,-9.01
2018-12-13T04:56:06.820Z,-9.06
2018-12-13T04:57:06.680Z,-8.88
2018-12-13T04:58:06.536Z,-8.88
2018-12-13T04:59:06.396Z,-8.95
2018-12-13T05:00:06.257Z,-8.98
2018-12-13T05:01:06.119Z,-8.94
2018-12-13T05:02:05.971Z,-9.02
2018-12-13T05:03:05.832Z,-9.04
2018-12-13T05:04:05.691Z,-9.09
2018-12-13T05:05:05.550Z,-9.06
2018-12-13T05:06:05.408Z,-9.10
2018-12-13T05:07:05.267Z,-9.09
2018-12-13T05:08:05.123Z,-9.04
2018-12-13T05:09:04.983Z,-9.04
2018-12-13T05:10:04.841Z,-8.94
2018-12-13T05:11:04.707Z,-8.92
2018-12-13T05:12:04.561Z,-8.94
2018-12-13T05:13:04.418Z,-8.83
2018-12-13T05:14:04.339Z,-8.86
2018-12-13T05:15:04.134Z,-8.84
2018-12-13T05:16:04.217Z,-8.92
2018-12-13T05:17:03.853Z,-8.89
2018-12-13T05:18:03.711Z,-8.78
2018-12-13T05:19:03.567Z,-8.89
2018-12-13T05:20:03.427Z,-8.94
2018-12-13T05:21:03.289Z,-9.01
2018-12-13T05:22:03.144Z,-8.99
2018-12-13T05:23:03.004Z,-8.92
2018-12-13T05:24:02.870Z,-9.01
2018-12-13T05:25:02.730Z,-9.01
2018-12-13T05:26:02.626Z,-8.94
2018-12-13T05:27:02.550Z,-8.80
2018-12-13T05:28:02.302Z,-8.84
2018-12-13T05:29:02.158Z,-8.84
2018-12-13T05:30:02.019Z,-8.81
2018-12-13T05:31:01.872Z,-8.84
2018-12-13T05:32:01.734Z,-8.91
2018-12-13T05:33:01.592Z,-8.80
2018-12-13T05:34:01.454Z,-8.81
2018-12-13T05:35:01.310Z,-8.91
2018-12-13T05:36:01.168Z,-8.88
2018-12-13T05:37:01.029Z,-8.88
2018-12-13T05:38:00.887Z,-8.83
2018-12-13T05:39:00.745Z,-8.80
2018-12-13T05:40:00.602Z,-8.80
2018-12-13T05:41:00.460Z,-8.86
2018-12-13T05:42:00.319Z,-8.66
2018-12-13T05:43:00.180Z,-8.70
2018-12-13T05:44:00.045Z,-8.73
2018-12-13T05:44:59.897Z,-8.60
2018-12-13T05:45:59.757Z,-8.73
2018-12-13T05:46:59.640Z,-8.86
2018-12-13T05:47:59.473Z,-8.78
2018-12-13T05:48:59.331Z,-8.80
2018-12-13T05:49:59.242Z,-8.83
2018-12-13T05:50:59.051Z,-8.89
2018-12-13T05:51:58.907Z,-8.83
2018-12-13T05:52:58.765Z,-8.77
2018-12-13T05:53:58.623Z,-8.86
2018-12-13T05:54:58.521Z,-8.81
2018-12-13T05:55:58.342Z,-8.80
2018-12-13T05:56:58.265Z,-8.83
2018-12-13T05:57:58.164Z,-8.81
2018-12-13T05:58:57.928Z,-8.80
2018-12-13T05:59:57.785Z,-8.81
2018-12-13T06:00:57.638Z,-8.84
2018-12-13T06:01:57.501Z,-8.92
2018-12-13T06:02:57.353Z,-8.89
2018-12-13T06:03:57.214Z,-9.01
2018-12-13T06:04:57.072Z,-9.08
2018-12-13T06:05:56.931Z,-9.08
2018-12-13T06:06:56.875Z,-8.97
2018-12-13T06:07:56.944Z,-8.99
2018-12-13T06:08:56.507Z,-9.01
2018-12-13T06:09:56.604Z,-8.84
2018-12-13T06:10:56.224Z,-8.84
2018-12-13T06:11:56.083Z,-8.92
2018-12-13T06:12:55.942Z,-8.92
2018-12-13T06:13:55.836Z,-8.99
2018-12-13T06:14:55.661Z,-8.97
2018-12-13T06:15:55.522Z,-9.01
2018-12-13T06:16:55.377Z,-8.97
2018-12-13T06:17:55.235Z,-8.94
2018-12-13T06:18:55.097Z,-8.91
2018-12-13T06:19:55.065Z,-8.78
2018-12-13T06:20:54.812Z,-8.83
2018-12-13T06:21:54.673Z,-8.80
2018-12-13T06:22:54.529Z,-8.88
2018-12-13T06:23:54.390Z,-8.83
2018-12-13T06:24:54.248Z,-8.81
2018-12-13T06:25:54.104Z,-8.83
2018-12-13T06:26:53.969Z,-8.83
2018-12-13T06:27:53.824Z,-8.77
2018-12-13T06:28:53.682Z,-8.83
2018-12-13T06:29:58.918Z,-8.86
2018-12-13T06:30:53.399Z,-8.81
2018-12-13T06:31:53.260Z,-8.81
2018-12-13T06:32:53.123Z,-8.86
2018-12-13T06:33:52.974Z,-8.86
2018-12-13T06:34:52.849Z,-8.84
2018-12-13T06:35:52.691Z,-8.84
2018-12-13T06:36:52.551Z,-8.84
2018-12-13T06:37:52.409Z,-8.89
2018-12-13T06:38:52.268Z,-8.81
2018-12-13T06:39:52.129Z,-8.84
2018-12-13T06:40:51.987Z,-8.81
2018-12-13T06:41:51.844Z,-8.71
2018-12-13T06:42:51.703Z,-8.74
2018-12-13T06:43:52.358Z,-8.86
2018-12-13T06:44:51.421Z,-8.80
2018-12-13T06:45:51.277Z,-8.81
2018-12-13T06:46:51.137Z,-8.83
2018-12-13T06:47:50.997Z,-8.77
2018-12-13T06:48:50.855Z,-8.89
2018-12-13T06:49:50.714Z,-8.81
2018-12-13T06:50:50.571Z,-8.80
2018-12-13T06:51:50.433Z,-8.83
2018-12-13T06:52:50.293Z,-8.83
2018-12-13T06:53:50.147Z,-8.84
2018-12-13T06:54:50.007Z,-8.86
2018-12-13T06:55:49.864Z,-8.84
2018-12-13T06:56:49.725Z,-8.88
2018-12-13T06:57:49.583Z,-8.80
2018-12-13T06:58:49.441Z,-8.84
2018-12-13T06:59:49.300Z,-8.88
2018-12-13T07:00:49.160Z,-8.83
2018-12-13T07:01:49.021Z,-8.84
2018-12-13T07:02:48.876Z,-8.92
2018-12-13T07:03:48.734Z,-8.81
2018-12-13T07:04:48.593Z,-8.81
2018-12-13T07:05:48.453Z,-8.78
2018-12-13T07:06:48.312Z,-8.76
2018-12-13T07:07:48.174Z,-8.86
2018-12-13T07:08:48.029Z,-8.81
2018-12-13T07:09:47.886Z,-8.81
2018-12-13T07:10:47.746Z,-8.88
2018-12-13T07:11:47.609Z,-8.88
2018-12-13T07:12:47.465Z,-8.84
2018-12-13T07:13:47.323Z,-8.81
2018-12-13T07:14:47.183Z,-8.83
2018-12-13T07:15:47.040Z,-8.84
2018-12-13T07:16:46.901Z,-8.71
2018-12-13T07:17:46.758Z,-8.86
2018-12-13T07:18:46.617Z,-8.80
2018-12-13T07:19:46.478Z,-8.81
2018-12-13T07:20:46.335Z,-8.84
2018-12-13T07:21:46.192Z,-8.86
2018-12-13T07:22:46.051Z,-8.83
2018-12-13T07:23:45.910Z,-8.84
2018-12-13T07:24:45.772Z,-8.81
2018-12-13T07:25:45.629Z,-8.81
2018-12-13T07:26:45.487Z,-8.80
2018-12-13T07:27:45.346Z,-8.83
2018-12-13T07:28:45.205Z,-8.83
2018-12-13T07:29:45.063Z,-8.78
2018-12-13T07:30:44.923Z,-8.81
2018-12-13T07:31:44.782Z,-8.88
2018-12-13T07:32:44.642Z,-8.77
2018-12-13T07:33:44.499Z,-8.83
2018-12-13T07:34:44.358Z,-8.65
2018-12-13T07:35:44.216Z,-8.71
2018-12-13T07:36:44.076Z,-8.66
2018-12-13T07:37:43.934Z,-8.66
2018-12-13T07:38:43.795Z,-8.68
2018-12-13T07:39:43.653Z,-8.73
2018-12-13T07:40:43.515Z,-8.76
2018-12-13T07:41:43.369Z,-8.74
2018-12-13T07:42:43.228Z,-8.63
2018-12-13T07:43:43.089Z,-8.73
2018-12-13T07:44:42.949Z,-8.70
2018-12-13T07:45:42.807Z,-8.70
2018-12-13T07:46:42.666Z,-8.63
2018-12-13T07:47:42.524Z,-8.63
2018-12-13T07:48:42.382Z,-8.63
2018-12-13T07:49:42.242Z,-8.50
2018-12-13T07:50:42.102Z,-8.58
2018-12-13T07:51:41.958Z,-8.53
2018-12-13T07:52:41.818Z,-8.53
2018-12-13T07:53:41.680Z,-8.56
2018-12-13T07:54:41.537Z,-8.53
2018-12-13T07:55:41.397Z,-8.56
2018-12-13T07:56:41.253Z,-8.48
2018-12-13T07:57:41.111Z,-8.45
2018-12-13T07:58:40.973Z,-8.39
2018-12-13T07:59:40.830Z,-8.48
2018-12-13T08:00:40.689Z,-8.56
2018-12-13T08:01:40.549Z,-8.42
2018-12-13T08:02:40.413Z,-8.45
2018-12-13T08:03:40.267Z,-8.39
2018-12-13T08:04:40.126Z,-8.37
2018-12-13T08:05:39.985Z,-8.35
2018-12-13T08:06:39.844Z,-8.31
2018-12-13T08:07:39.703Z,-8.31
2018-12-13T08:08:39.562Z,-8.27
2018-12-13T08:09:39.427Z,-8.32
2018-12-13T08:10:39.279Z,-8.19
2018-12-13T08:11:39.141Z,-8.17
2018-12-13T08:12:38.998Z,-8.20
2018-12-13T08:13:38.855Z,-8.20
2018-12-13T08:14:38.714Z,-8.27
2018-12-13T08:15:38.577Z,-8.27
2018-12-13T08:16:38.434Z,-8.31
2018-12-13T08:17:38.291Z,-8.35
2018-12-13T08:18:38.151Z,-8.21
2018-12-13T08:19:38.013Z,-8.13
2018-12-13T08:20:37.870Z,-8.23
2018-12-13T08:21:37.732Z,-8.16
2018-12-13T08:22:37.588Z,-8.17
2018-12-13T08:23:37.458Z,-8.24
2018-12-13T08:24:37.306Z,-8.23
2018-12-13T08:25:37.165Z,-8.08
2018-12-13T08:26:37.027Z,-8.10
2018-12-13T08:27:36.885Z,-8.06
2018-12-13T08:28:36.742Z,-8.13
2018-12-13T08:29:36.603Z,-8.08
2018-12-13T08:30:36.464Z,-7.98
2018-12-13T08:31:36.322Z,-8.05
2018-12-13T08:32:36.182Z,-8.10
2018-12-13T08:33:36.041Z,-8.03
2018-12-13T08:34:35.899Z,-8.03
2018-12-13T08:35:35.759Z,-8.05
2018-12-13T08:36:35.621Z,-8.20
2018-12-13T08:37:35.478Z,-8.17
2018-12-13T08:38:35.337Z,-8.09
2018-12-13T08:39:35.203Z,-8.03
2018-12-13T08:40:35.060Z,-7.99
2018-12-13T08:41:34.916Z,-7.88
2018-12-13T08:42:34.777Z,-7.90
2018-12-13T08:43:34.637Z,-7.91
2018-12-13T08:44:34.496Z,-7.88
2018-12-13T08:45:34.354Z,-7.84
2018-12-13T08:46:36.684Z,-7.90
2018-12-13T08:47:34.073Z,-7.87
2018-12-13T08:48:33.932Z,-7.88
2018-12-13T08:49:33.792Z,-7.88
2018-12-13T08:50:33.651Z,-7.94
2018-12-13T08:51:33.512Z,-7.87
2018-12-13T08:52:33.372Z,-7.90
2018-12-13T08:53:33.230Z,-7.94
2018-12-13T08:54:33.089Z,-7.84
2018-12-13T08:55:32.952Z,-7.83
2018-12-13T08:56:32.808Z,-7.81
2018-12-13T08:57:32.668Z,-7.77
2018-12-13T08:58:32.528Z,-7.77
2018-12-13T08:59:32.388Z,-7.86
2018-12-13T09:00:32.249Z,-7.76
2018-12-13T09:01:32.106Z,-7.86
2018-12-13T09:02:31.964Z,-7.90
2018-12-13T09:03:31.829Z,-7.90
2018-12-13T09:04:31.686Z,-7.81
2018-12-13T09:05:31.544Z,-7.80
2018-12-13T09:06:31.405Z,-7.74
2018-12-13T09:07:31.266Z,-7.72
2018-12-13T09:08:33.759Z,-7.70
2018-12-13T09:09:31.021Z,-7.66
2018-12-13T09:10:30.847Z,-7.65
2018-12-13T09:11:30.704Z,-7.63
2018-12-13T09:12:30.561Z,-7.54
2018-12-13T09:13:30.421Z,-7.44
2018-12-13T09:14:30.282Z,-7.51
2018-12-13T09:15:30.141Z,-7.49
2018-12-13T09:16:31.643Z,-7.47
2018-12-13T09:17:29.862Z,-7.45
2018-12-13T09:18:29.735Z,-7.41
2018-12-13T09:19:29.587Z,-7.34
2018-12-13T09:20:29.444Z,-7.34
2018-12-13T09:21:29.303Z,-7.41
2018-12-13T09:22:29.161Z,-7.48
2018-12-13T09:23:29.021Z,-7.42
2018-12-13T09:24:28.882Z,-7.34
2018-12-13T09:25:28.747Z,-7.29
2018-12-13T09:26:28.624Z,-7.34
2018-12-13T09:27:28.462Z,-7.29
2018-12-13T09:28:28.325Z,-7.19
2018-12-13T09:29:28.180Z,-7.15
2018-12-13T09:30:28.042Z,-7.03
2018-12-13T09:31:27.900Z,-7.05
2018-12-13T09:32:27.760Z,-6.97
2018-12-13T09:33:27.618Z,-6.97
2018-12-13T09:34:27.482Z,-6.94
2018-12-13T09:35:27.341Z,-6.88
2018-12-13T09:36:27.201Z,-6.70
2018-12-13T09:37:27.060Z,-6.61
2018-12-13T09:38:27.444Z,-6.45
2018-12-13T09:39:26.782Z,-6.29
2018-12-13T09:40:26.643Z,-6.02
2018-12-13T09:41:26.503Z,-5.80
2018-12-13T09:42:26.366Z,-5.59
2018-12-13T09:43:26.227Z,-5.31
2018-12-13T09:44:26.088Z,-5.17
2018-12-13T09:45:25.947Z,-4.91
2018-12-13T09:46:25.811Z,-4.68
2018-12-13T09:47:25.670Z,-4.43
2018-12-13T09:48:25.532Z,-4.26
2018-12-13T09:49:25.394Z,-4.05
2018-12-13T09:50:25.255Z,-3.90
2018-12-13T09:51:25.119Z,-3.68
2018-12-13T09:52:24.981Z,-3.46
2018-12-13T09:53:24.842Z,-3.26
2018-12-13T09:54:24.705Z,-3.13
2018-12-13T09:55:24.567Z,-2.99
2018-12-13T09:56:24.433Z,-2.81
2018-12-13T09:57:24.295Z,-2.53
2018-12-13T09:58:24.156Z,-2.24
2018-12-13T09:59:24.643Z,-2.20
2018-12-13T10:00:23.884Z,-2.05
2018-12-13T10:01:23.746Z,-1.95
2018-12-13T10:02:23.613Z,-1.70
2018-12-13T10:03:23.475Z,-1.51
2018-12-13T10:04:23.343Z,-1.25
2018-12-13T10:05:23.204Z,-1.25
2018-12-13T10:06:23.069Z,-1.15
2018-12-13T10:07:22.935Z,-1.28
2018-12-13T10:08:22.802Z,-1.03
2018-12-13T10:09:22.663Z,-0.81
2018-12-13T10:10:22.531Z,-0.47
2018-12-13T10:11:22.397Z,-0.11
2018-12-13T10:12:22.262Z,0.25
2018-12-13T10:13:22.128Z,0.41
2018-12-13T10:14:21.995Z,0.58
2018-12-13T10:15:21.862Z,0.36
2018-12-13T10:16:21.728Z,0.62
2018-12-13T10:17:21.594Z,0.41
2018-12-13T10:18:21.460Z,0.45
2018-12-13T10:19:21.328Z,0.72
2018-12-13T10:20:21.197Z,0.62
2018-12-13T10:21:21.063Z,0.60
2018-12-13T10:22:20.929Z,0.71
2018-12-13T10:23:20.799Z,0.53
2018-12-13T10:24:20.664Z,0.49
2018-12-13T10:25:20.537Z,0.58
2018-12-13T10:26:20.399Z,0.60
2018-12-13T10:27:20.267Z,0.58
2018-12-13T10:28:20.137Z,0.65
2018-12-13T10:29:20.004Z,0.52
2018-12-13T10:30:19.871Z,0.49
2018-12-13T10:31:19.738Z,0.65
2018-12-13T10:32:19.612Z,0.70
2018-12-13T10:33:19.477Z,0.51
2018-12-13T10:34:19.372Z,0.33
2018-12-13T10:35:19.215Z,0.61
2018-12-13T10:36:19.078Z,0.94
2018-12-13T10:37:18.948Z,0.88
2018-12-13T10:38:18.814Z,1.08
2018-12-13T10:39:18.680Z,0.90
2018-12-13T10:40:18.549Z,0.61
2018-12-13T10:41:18.417Z,0.23
2018-12-13T10:42:18.285Z,0.30
2018-12-13T10:43:18.153Z,0.31
2018-12-13T10:44:18.020Z,0.30
2018-12-13T10:45:17.888Z,0.15
2018-12-13T10:46:17.754Z,0.10
2018-12-13T10:47:17.625Z,-0.30
2018-12-13T10:48:17.493Z,-0.27
2018-12-13T10:49:17.359Z,-0.30
2018-12-13T10:50:17.229Z,-0.19
2018-12-13T10:51:17.098Z,-0.22
2018-12-13T10:52:16.968Z,0.02
2018-12-13T10:53:16.831Z,0.33
2018-12-13T10:54:16.696Z,0.46
2018-12-13T10:55:16.564Z,0.49
2018-12-13T10:56:16.447Z,-0.09
2018-12-13T10:57:16.300Z,-0.50
2018-12-13T10:58:16.167Z,-0.52
2018-12-13T10:59:16.035Z,-0.19
2018-12-13T11:00:15.903Z,0.12
2018-12-13T11:01:15.767Z,0.46
2018-12-13T11:02:15.639Z,0.67
2018-12-13T11:03:15.504Z,0.49
2018-12-13T11:04:15.415Z,0.21
2018-12-13T11:05:15.237Z,-0.11
2018-12-13T11:06:15.105Z,-0.45
2018-12-13T11:07:14.973Z,-0.52
2018-12-13T11:08:14.845Z,-0.86
2018-12-13T11:09:14.707Z,-0.94
2018-12-13T11:10:14.575Z,-0.89
2018-12-13T11:11:14.441Z,-0.97
2018-12-13T11:12:14.311Z,-0.84
2018-12-13T11:13:14.175Z,-0.75
2018-12-13T11:14:14.041Z,-0.86
2018-12-13T11:15:13.907Z,-0.81
2018-12-13T11:16:13.776Z,-0.77
2018-12-13T11:17:13.643Z,-0.86
2018-12-13T11:18:13.509Z,-0.75
2018-12-13T11:19:13.375Z,-0.59
2018-12-13T11:20:13.242Z,-0.59
2018-12-13T11:21:17.405Z,-0.44
2018-12-13T11:22:12.973Z,-0.48
2018-12-13T11:23:12.840Z,-0.44
2018-12-13T11:24:12.712Z,-0.23
2018-12-13T11:25:12.574Z,-0.23
2018-12-13T11:26:12.441Z,-0.11
2018-12-13T11:27:12.307Z,0.20
2018-12-13T11:28:12.192Z,0.06
2018-12-13T11:29:12.038Z,0.10
2018-12-13T11:30:11.906Z,-0.09
2018-12-13T11:31:11.774Z,0.06
2018-12-13T11:32:11.640Z,-0.06
2018-12-13T11:33:11.506Z,-0.01
2018-12-13T11:34:11.374Z,-0.05
2018-12-13T11:35:11.243Z,-0.06
2018-12-13T11:36:11.110Z,0.02
2018-12-13T11:37:10.975Z,0.18
2018-12-13T11:38:10.845Z,0.36
2018-12-13T11:39:10.713Z,0.57
2018-12-13T11:40:10.577Z,0.62
2018-12-13T11:41:10.442Z,0.51
2018-12-13T11:42:10.311Z,0.58
2018-12-13T11:43:10.177Z,0.48
2018-12-13T11:44:10.047Z,0.24
2018-12-13T11:45:09.911Z,0.18
2018-12-13T11:46:09.782Z,-0.06
2018-12-13T11:47:09.647Z,-0.33
2018-12-13T11:48:09.515Z,-0.42
2018-12-13T11:49:12.289Z,-0.33
2018-12-13T11:50:09.248Z,-0.06
2018-12-13T11:51:09.118Z,-0.18
2018-12-13T11:52:08.984Z,-0.08
2018-12-13T11:53:08.850Z,-0.09
2018-12-13T11:54:08.716Z,0.09
2018-12-13T11:55:08.585Z,0.02
2018-12-13T11:56:08.451Z,0.06
2018-12-13T11:57:08.319Z,0.34
2018-12-13T11:58:08.187Z,0.58
2018-12-13T11:59:08.055Z,0.41
2018-12-13T12:00:07.921Z,0.06
2018-12-13T12:01:07.787Z,-0.13
2018-12-13T12:02:07.662Z,0.20
2018-12-13T12:03:07.522Z,0.42
2018-12-13T12:04:07.389Z,0.39
2018-12-13T12:05:07.255Z,0.13
2018-12-13T12:06:07.123Z,-0.12
2018-12-13T12:07:06.992Z,-0.27
2018-12-13T12:08:06.859Z,-0.26
2018-12-13T12:09:12.070Z,-0.22
2018-12-13T12:10:06.596Z,-0.23
2018-12-13T12:11:06.460Z,-0.05
2018-12-13T12:12:06.329Z,-0.05
2018-12-13T12:13:06.194Z,0.07
2018-12-13T12:14:06.064Z,0.07
2018-12-13T12:15:05.932Z,0.10
2018-12-13T12:16:05.802Z,0.13
2018-12-13T12:17:05.662Z,0.09
2018-12-13T12:18:05.529Z,-0.39
2018-12-13T12:19:05.397Z,-0.47
2018-12-13T12:20:05.264Z,-0.60
2018-12-13T12:21:05.131Z,-0.29
2018-12-13T12:22:04.998Z,-0.05
2018-12-13T12:23:04.866Z,-0.09
2018-12-13T12:24:04.732Z,0.20
2018-12-13T12:25:04.597Z,0.46
2018-12-13T12:26:04.465Z,0.38
2018-12-13T12:27:04.334Z,0.33
2018-12-13T12:28:04.201Z,0.30
2018-12-13T12:29:04.066Z,-0.23
2018-12-13T12:30:03.933Z,-0.44
2018-12-13T12:31:03.801Z,-0.63
2018-12-13T12:32:03.672Z,-0.60
2018-12-13T12:33:03.536Z,-0.54
2018-12-13T12:34:03.404Z,-0.34
2018-12-13T12:35:03.269Z,-0.24
2018-12-13T12:36:03.139Z,0.03
2018-12-13T12:37:03.002Z,0.09
2018-12-13T12:38:02.871Z,0.15
2018-12-13T12:39:02.738Z,0.36
2018-12-13T12:40:02.605Z,0.12
2018-12-13T12:41:02.475Z,0.18
2018-12-13T12:42:02.340Z,0.48
2018-12-13T12:43:02.205Z,0.83
2018-12-13T12:44:02.073Z,1.10
2018-12-13T12:45:01.941Z,0.72
2018-12-13T12:46:01.806Z,0.28
2018-12-13T12:47:01.674Z,0.09
2018-12-13T12:48:01.541Z,-0.12
2018-12-13T12:49:01.411Z,-0.01
2018-12-13T12:50:01.272Z,0.39
2018-12-13T12:51:01.142Z,0.41
2018-12-13T12:52:01.066Z,-0.18
2018-12-13T12:53:00.874Z,-0.13
2018-12-13T12:54:00.741Z,-0.08